Time;durP1;ratioP1;P1;durP2;ratioP2;P2;SDS_P1;SDS_P2;PMS_P1;PMS_P2;Temp;Humidity;BMP_temperature;BMP_pressure;BME280_temperature;BME280_humidity;BME280_pressure;Samples;Min_cycle;Max_cycle;Signal;HPM_P1;HPM_P2
2022/01/13 00:02:04;;;;;;;90.70;35.60;;;;;;;4.71;100.00;103118.78;8326843;28;20037;-63
2022/01/13 00:06:05;;;;;;;82.25;32.97;;;;;;;4.67;100.00;103111.75;8326904;28;20103;-63
2022/01/13 00:10:06;;;;;;;84.85;34.58;;;;;;;4.65;100.00;103113.56;8326242;28;20041;-63
2022/01/13 00:14:22;;;;;;;86.13;33.50;;;;;;;4.60;100.00;103110.16;8326278;28;20567;-63
2022/01/13 00:18:38;;;;;;;79.18;32.47;;;;;;;4.52;100.00;103104.09;8324754;28;20037;-63
2022/01/13 00:22:49;;;;;;;83.50;34.70;;;;;;;4.49;100.00;103110.41;8326242;28;20427;-63
2022/01/13 00:26:49;;;;;;;81.93;32.08;;;;;;;4.44;100.00;103114.09;8325635;28;20041;-63
2022/01/13 00:30:54;;;;;;;79.35;31.20;;;;;;;4.41;100.00;103111.50;8330900;28;20037;-64
2022/01/13 00:34:54;;;;;;;76.68;32.17;;;;;;;4.39;100.00;103110.69;8336156;28;20037;-64
2022/01/13 00:38:56;;;;;;;82.80;33.58;;;;;;;4.36;100.00;103108.09;8351851;28;20033;-65
2022/01/13 00:42:56;;;;;;;78.72;31.30;;;;;;;4.35;100.00;103123.25;8336128;28;20037;-64
2022/01/13 00:46:59;;;;;;;72.22;29.65;;;;;;;4.34;100.00;103107.22;8341519;28;20104;-64
2022/01/13 00:51:00;;;;;;;73.47;29.83;;;;;;;4.27;100.00;103100.28;8349746;28;20034;-64
2022/01/13 00:55:05;;;;;;;74.10;31.10;;;;;;;4.22;100.00;103107.53;8365102;28;20041;-64
2022/01/13 00:59:09;;;;;;;80.45;34.20;;;;;;;4.06;100.00;103110.56;8335392;28;20037;-64
2022/01/13 01:03:10;;;;;;;86.38;34.88;;;;;;;3.93;100.00;103119.81;8334886;28;20100;-64
2022/01/13 01:07:10;;;;;;;97.13;34.05;;;;;;;3.76;100.00;103121.09;8334094;28;20099;-64
2022/01/13 01:11:11;;;;;;;93.80;34.03;;;;;;;3.76;100.00;103124.63;8334558;28;20053;-64
2022/01/13 01:15:12;;;;;;;89.63;34.67;;;;;;;3.73;100.00;103119.34;8335148;28;20031;-64
2022/01/13 01:19:14;;;;;;;89.68;34.00;;;;;;;3.60;100.00;103136.59;8333999;28;20030;-64
2022/01/13 01:23:19;;;;;;;91.57;34.75;;;;;;;3.61;100.00;103133.03;8334215;28;20501;-64
2022/01/13 01:27:23;;;;;;;92.20;35.33;;;;;;;3.46;100.00;103133.34;8341859;28;20045;-64
2022/01/13 01:31:29;;;;;;;99.60;35.05;;;;;;;3.45;100.00;103134.22;8334475;28;20042;-64
2022/01/13 01:35:29;;;;;;;98.38;35.47;;;;;;;3.32;100.00;103138.06;8334981;28;20033;-64
2022/01/13 01:39:30;;;;;;;98.05;36.00;;;;;;;3.39;100.00;103139.72;8366330;28;20048;-64
2022/01/13 01:43:30;;;;;;;97.93;35.30;;;;;;;3.23;100.00;103143.59;8366876;28;20052;-64
2022/01/13 01:47:32;;;;;;;101.93;38.38;;;;;;;3.21;100.00;103144.56;8365688;28;20151;-64
2022/01/13 01:51:32;;;;;;;91.72;35.65;;;;;;;3.04;100.00;103150.22;8348516;28;20097;-64
2022/01/13 01:55:33;;;;;;;99.88;36.83;;;;;;;2.90;100.00;103154.06;8338760;28;20037;-64
2022/01/13 01:59:38;;;;;;;93.05;34.75;;;;;;;2.70;100.00;103156.19;8339476;28;20046;-64
2022/01/13 02:03:38;;;;;;;99.45;38.05;;;;;;;2.71;100.00;103150.81;8337804;28;20060;-64
2022/01/13 02:07:39;;;;;;;93.10;33.00;;;;;;;2.31;100.00;103168.41;8338901;28;20038;-64
2022/01/13 02:11:45;;;;;;;103.38;34.60;;;;;;;2.45;100.00;103163.75;8337668;28;20030;-64
2022/01/13 02:16:02;;;;;;;105.78;35.20;;;;;;;2.43;100.00;103145.97;8340661;28;20044;-64
2022/01/13 02:20:04;;;;;;;87.28;32.42;;;;;;;2.50;100.00;103158.31;8348489;28;20397;-64
2022/01/13 02:24:04;;;;;;;86.53;31.40;;;;;;;2.53;100.00;103148.47;8337036;28;20041;-64
2022/01/13 02:28:05;;;;;;;101.75;36.13;;;;;;;2.38;100.00;103163.88;8356247;28;20047;-64
2022/01/13 02:32:06;;;;;;;101.80;33.67;;;;;;;2.28;100.00;103162.25;8339892;28;20041;-64
2022/01/13 02:36:08;;;;;;;108.18;35.60;;;;;;;2.16;100.00;103152.63;8338551;28;20447;-64
2022/01/13 02:40:09;;;;;;;99.93;36.00;;;;;;;2.27;100.00;103150.69;8336953;28;20551;-64
2022/01/13 02:44:16;;;;;;;103.55;36.30;;;;;;;2.38;100.00;103143.38;8338851;28;20033;-64
2022/01/13 02:52:38;;;;;;;104.00;34.58;;;;;;;2.42;100.00;103142.44;8365649;27;20143;-64
2022/01/13 02:56:39;;;;;;;90.15;33.17;;;;;;;2.38;100.00;103153.19;8362435;28;20034;-64
2022/01/13 03:00:41;;;;;;;98.90;35.05;;;;;;;2.26;100.00;103148.94;8360566;28;20113;-64
2022/01/13 03:04:49;;;;;;;101.22;34.78;;;;;;;2.35;100.00;103154.09;8362654;28;20044;-64
2022/01/13 03:08:51;;;;;;;92.07;34.13;;;;;;;2.36;100.00;103146.97;8330784;28;20382;-64
2022/01/13 03:12:51;;;;;;;110.95;36.55;;;;;;;2.42;100.00;103131.75;8361682;28;20045;-64
2022/01/13 03:16:51;;;;;;;96.53;35.08;;;;;;;2.59;100.00;103127.00;8361310;28;20071;-64
2022/01/13 03:20:52;;;;;;;97.95;33.80;;;;;;;2.58;100.00;103122.56;8374822;28;20033;-64
2022/01/13 03:24:52;;;;;;;93.00;33.42;;;;;;;2.57;100.00;103127.94;8368022;28;20694;-64
2022/01/13 03:29:04;;;;;;;83.65;31.90;;;;;;;2.33;100.00;103129.22;8361379;28;20102;-64
2022/01/13 03:33:06;;;;;;;99.05;32.88;;;;;;;1.85;100.00;103125.53;8358852;28;20422;-64
2022/01/13 03:37:06;;;;;;;135.15;34.20;;;;;;;1.71;100.00;103115.97;8348806;28;20042;-64
2022/01/13 03:41:07;;;;;;;148.85;31.95;;;;;;;1.49;100.00;103119.78;8325036;28;20386;-64
2022/01/13 03:45:08;;;;;;;185.20;33.80;;;;;;;1.54;100.00;103121.53;8317117;28;20543;-64
2022/01/13 03:49:09;;;;;;;194.38;34.97;;;;;;;1.52;100.00;103130.41;8324733;28;20038;-64
2022/01/13 03:53:32;;;;;;;226.23;35.40;;;;;;;1.63;100.00;103131.16;8309994;28;20037;-64
2022/01/13 03:58:12;;;;;;;383.60;40.30;;;;;;;1.64;100.00;103135.59;8336412;28;20068;-64
2022/01/13 04:02:14;;;;;;;248.02;37.15;;;;;;;1.78;100.00;103128.31;8346105;28;20026;-64
2022/01/13 04:15:03;;;;;;;210.48;35.75;;;;;;;1.95;100.00;103112.91;8404871;27;20738;-62
2022/01/13 04:19:06;;;;;;;313.38;40.67;;;;;;;1.85;100.00;103114.84;8374750;28;20083;-62
2022/01/13 04:23:07;;;;;;;289.60;37.00;;;;;;;1.79;100.00;103119.38;8373495;28;20041;-62
2022/01/13 04:27:08;;;;;;;191.23;32.30;;;;;;;1.85;100.00;103124.63;8363795;28;20041;-62
2022/01/13 04:31:09;;;;;;;158.95;31.02;;;;;;;1.76;100.00;103130.09;8371545;28;20131;-64
2022/01/13 04:35:10;;;;;;;179.27;33.13;;;;;;;1.84;100.00;103122.88;8380930;28;20071;-64
2022/01/13 04:39:13;;;;;;;165.15;30.55;;;;;;;1.76;100.00;103119.44;8335238;28;20184;-64
2022/01/13 04:43:14;;;;;;;146.15;29.80;;;;;;;1.74;100.00;103115.91;8328599;28;20037;-64
2022/01/13 04:47:15;;;;;;;182.77;32.80;;;;;;;1.66;100.00;103116.03;8345361;28;20049;-64
2022/01/13 04:51:15;;;;;;;215.43;35.50;;;;;;;1.73;100.00;103119.47;8375143;28;20041;-64
2022/01/13 04:55:22;;;;;;;234.70;34.45;;;;;;;1.87;100.00;103117.50;8380375;28;20028;-64
2022/01/13 04:59:22;;;;;;;168.82;30.27;;;;;;;1.76;100.00;103114.09;8346264;28;20507;-64
2022/01/13 05:03:24;;;;;;;155.73;29.10;;;;;;;1.66;100.00;103112.47;8358153;28;20045;-64
2022/01/13 05:07:24;;;;;;;133.82;28.13;;;;;;;1.81;100.00;103101.59;8374829;28;20034;-64
2022/01/13 05:11:26;;;;;;;129.38;27.38;;;;;;;1.84;100.00;103096.22;8383498;28;20493;-64
2022/01/13 05:15:27;;;;;;;181.57;30.77;;;;;;;1.84;100.00;103101.53;8411950;28;20082;-64
2022/01/13 05:19:36;;;;;;;178.82;32.25;;;;;;;1.93;100.00;103112.09;8365735;28;20160;-64
2022/01/13 05:23:37;;;;;;;260.90;33.05;;;;;;;1.75;100.00;103112.34;8325949;28;20524;-64
2022/01/13 05:27:37;;;;;;;193.60;31.75;;;;;;;1.80;100.00;103111.34;8340375;28;20060;-64
2022/01/13 05:31:38;;;;;;;220.48;32.92;;;;;;;1.81;100.00;103107.81;8347248;28;20041;-64
2022/01/13 05:35:38;;;;;;;191.90;31.38;;;;;;;1.81;100.00;103089.16;8350874;28;20048;-64
2022/01/13 05:39:39;;;;;;;209.85;33.00;;;;;;;1.85;100.00;103092.63;8347836;28;20052;-64
2022/01/13 05:43:39;;;;;;;197.73;34.47;;;;;;;1.88;100.00;103103.25;8323946;28;20029;-64
2022/01/13 05:47:41;;;;;;;217.65;32.72;;;;;;;1.83;100.00;103095.31;8323876;28;20038;-64
2022/01/13 05:51:42;;;;;;;203.20;34.33;;;;;;;1.88;100.00;103097.91;8348868;28;20392;-64
2022/01/13 05:55:43;;;;;;;219.10;34.35;;;;;;;1.92;100.00;103091.63;8337286;28;20029;-64
2022/01/13 05:59:43;;;;;;;261.50;35.42;;;;;;;1.84;100.00;103091.75;8339903;28;20030;-64
2022/01/13 06:03:43;;;;;;;193.30;33.80;;;;;;;1.90;100.00;103101.44;8334039;28;20068;-64
2022/01/13 06:07:45;;;;;;;215.85;33.05;;;;;;;1.95;100.00;103104.91;8337165;28;20043;-64
2022/01/13 06:11:56;;;;;;;239.05;39.75;;;;;;;1.94;100.00;103087.16;8331522;28;20405;-64
2022/01/13 06:15:56;;;;;;;284.50;45.25;;;;;;;2.09;100.00;103097.59;8339868;28;20136;-64
2022/01/13 06:19:58;;;;;;;279.27;42.00;;;;;;;2.11;100.00;103101.13;8335390;28;20398;-64
2022/01/13 06:23:58;;;;;;;245.45;39.20;;;;;;;1.98;100.00;103083.53;8326370;28;20061;-64
2022/01/13 06:27:59;;;;;;;316.30;45.03;;;;;;;2.03;100.00;103092.34;8323687;28;20059;-64
2022/01/13 06:31:59;;;;;;;301.83;45.90;;;;;;;2.12;100.00;103086.88;8328636;28;20092;-62
2022/01/13 06:36:00;;;;;;;229.73;41.63;;;;;;;2.17;100.00;103085.03;8327386;28;20041;-64
2022/01/13 06:40:02;;;;;;;225.70;39.28;;;;;;;2.03;100.00;103095.91;8332190;28;20030;-64
2022/01/13 06:44:03;;;;;;;289.23;40.00;;;;;;;1.88;100.00;103089.91;8337957;28;20037;-64
2022/01/13 06:48:04;;;;;;;319.13;40.80;;;;;;;1.86;100.00;103095.28;8337462;28;20041;-64
2022/01/13 06:52:05;;;;;;;287.58;38.55;;;;;;;1.93;100.00;103101.41;8348695;28;20045;-64
2022/01/13 06:56:05;;;;;;;209.93;37.00;;;;;;;1.93;100.00;103085.41;8339209;28;20072;-64
2022/01/13 07:00:06;;;;;;;290.77;41.50;;;;;;;1.96;100.00;103088.88;8321944;28;20235;-64
2022/01/13 07:04:10;;;;;;;375.83;40.35;;;;;;;1.72;100.00;103086.59;8326094;28;20103;-64
2022/01/13 07:08:10;;;;;;;318.60;37.85;;;;;;;1.60;100.00;103091.22;8319502;28;20105;-64
2022/01/13 07:12:11;;;;;;;210.02;36.47;;;;;;;1.56;100.00;103095.69;8326890;28;20045;-64
2022/01/13 07:16:11;;;;;;;265.98;39.95;;;;;;;1.73;100.00;103098.13;8333683;28;20502;-64
2022/01/13 07:20:12;;;;;;;235.63;33.05;;;;;;;1.72;100.00;103105.28;8326001;28;20116;-64
2022/01/13 07:24:12;;;;;;;255.80;36.22;;;;;;;1.68;100.00;103100.00;8332303;28;20040;-64
2022/01/13 07:28:13;;;;;;;260.10;37.00;;;;;;;1.67;100.00;103125.78;8330019;28;20041;-64
2022/01/13 07:32:13;;;;;;;280.27;38.30;;;;;;;1.78;100.00;103128.31;8327385;28;20045;-64
2022/01/13 07:36:14;;;;;;;295.63;38.28;;;;;;;1.77;100.00;103127.41;8331326;28;20041;-64
2022/01/13 07:40:15;;;;;;;354.23;37.85;;;;;;;1.71;100.00;103121.28;8321827;28;20057;-64
2022/01/13 07:44:17;;;;;;;387.80;41.97;;;;;;;1.64;100.00;103119.59;8330985;28;20111;-64
2022/01/13 07:48:19;;;;;;;265.00;36.90;;;;;;;1.68;100.00;103130.19;8320226;28;20044;-64
2022/01/13 07:52:19;;;;;;;237.52;34.75;;;;;;;1.61;100.00;103135.63;8323066;28;20417;-64
2022/01/13 07:56:20;;;;;;;247.55;30.65;;;;;;;1.61;100.00;103140.97;8330042;28;20061;-64
2022/01/13 08:00:20;;;;;;;264.75;32.58;;;;;;;1.55;100.00;103133.03;8329748;28;20045;-64
2022/01/13 08:04:21;;;;;;;317.10;33.75;;;;;;;1.54;100.00;103140.19;8331187;28;20091;-64
2022/01/13 08:08:21;;;;;;;287.77;39.70;;;;;;;1.66;100.00;103144.47;8332546;28;20132;-64
2022/01/13 08:12:22;;;;;;;250.50;36.45;;;;;;;1.68;100.00;103140.00;8333230;28;20072;-64
2022/01/13 08:16:31;;;;;;;184.57;29.17;;;;;;;1.55;100.00;103146.38;8330804;28;20048;-64
2022/01/13 08:20:33;;;;;;;222.32;31.40;;;;;;;1.35;100.00;103148.41;8310802;28;20811;-64
2022/01/13 08:24:34;;;;;;;243.68;33.92;;;;;;;1.31;100.00;103144.88;8331180;28;20038;-64
2022/01/13 08:28:35;;;;;;;261.40;31.35;;;;;;;1.40;100.00;103143.94;8329153;28;20072;-64
2022/01/13 08:32:35;;;;;;;230.70;31.25;;;;;;;1.48;100.00;103144.69;8340458;28;20099;-64
2022/01/13 08:36:35;;;;;;;227.90;28.17;;;;;;;1.51;100.00;103137.56;8336269;28;20068;-64
2022/01/13 08:40:36;;;;;;;178.10;24.23;;;;;;;1.46;100.00;103144.72;8334298;28;22552;-64
2022/01/13 08:44:36;;;;;;;230.73;29.92;;;;;;;1.39;100.00;103158.13;8360130;28;20057;-64
2022/01/13 08:48:37;;;;;;;173.77;28.05;;;;;;;1.51;100.00;103157.97;8331279;28;20037;-64
2022/01/13 08:52:38;;;;;;;293.17;37.30;;;;;;;1.56;100.00;103166.81;8340808;28;20472;-65
2022/01/13 08:56:38;;;;;;;224.70;33.25;;;;;;;1.47;100.00;103158.94;8331730;28;20053;-64
2022/01/13 09:00:41;;;;;;;272.98;35.50;;;;;;;1.61;100.00;103170.28;8335583;28;20087;-64
2022/01/13 09:04:42;;;;;;;227.57;35.08;;;;;;;1.62;100.00;103156.94;8338332;28;20572;-64
2022/01/13 09:08:42;;;;;;;160.82;30.98;;;;;;;1.68;100.00;103164.00;8337486;28;20442;-64
2022/01/13 09:12:43;;;;;;;219.48;35.58;;;;;;;1.65;100.00;103154.22;8342241;28;20452;-64
2022/01/13 09:16:46;;;;;;;188.75;33.70;;;;;;;1.79;100.00;103156.72;8336941;28;20037;-64
2022/01/13 09:20:47;;;;;;;156.90;28.67;;;;;;;1.89;100.00;103145.91;8342280;28;20072;-64
2022/01/13 09:24:48;;;;;;;152.82;30.02;;;;;;;1.89;100.00;103150.34;8333233;28;20562;-64
2022/01/13 09:28:48;;;;;;;117.32;28.35;;;;;;;1.81;100.00;103157.59;8328449;28;20392;-64
2022/01/13 09:32:49;;;;;;;105.68;23.33;;;;;;;1.79;100.00;103162.06;8331077;28;20105;-64
2022/01/13 09:36:49;;;;;;;111.22;25.45;;;;;;;1.79;100.00;103156.72;8325881;28;20037;-64
2022/01/13 09:40:52;;;;;;;147.52;30.20;;;;;;;1.81;100.00;103163.81;8329191;28;20033;-64
2022/01/13 09:44:55;;;;;;;128.43;27.48;;;;;;;1.86;100.00;103169.09;8335634;28;20041;-64
2022/01/13 09:48:55;;;;;;;127.05;30.45;;;;;;;1.91;100.00;103167.22;8331404;28;20441;-64
2022/01/13 09:52:56;;;;;;;152.73;28.33;;;;;;;2.03;100.00;103167.06;8330482;28;20106;-64
2022/01/13 09:56:56;;;;;;;141.10;29.65;;;;;;;2.15;100.00;103177.56;8332053;28;20437;-64
2022/01/13 10:00:58;;;;;;;114.68;27.70;;;;;;;2.15;100.00;103165.97;8332902;28;20041;-64
2022/01/13 10:04:58;;;;;;;142.52;31.20;;;;;;;2.34;100.00;103165.69;8336974;28;20049;-64
2022/01/13 10:08:59;;;;;;;143.50;33.00;;;;;;;2.95;100.00;103157.50;8331352;28;20515;-64
2022/01/13 10:13:10;;;;;;;139.15;36.20;;;;;;;3.50;100.00;103156.44;8343649;28;20500;-64
2022/01/13 10:17:16;;;;;;;131.27;35.60;;;;;;;4.06;100.00;103150.72;8331070;28;20045;-64
2022/01/13 10:21:19;;;;;;;126.20;33.05;;;;;;;3.86;100.00;103155.66;8323533;28;20034;-64
2022/01/13 10:25:37;;;;;;;112.53;32.92;;;;;;;5.49;100.00;103154.16;8329859;28;20515;-64
2022/01/13 10:34:15;;;;;;;66.32;28.77;;;;;;;7.57;86.34;103165.09;8466124;27;20743;-65
2022/01/13 10:38:17;;;;;;;39.38;17.88;;;;;;;8.84;78.82;103160.03;8455241;27;20042;-65
2022/01/13 10:47:01;;;;;;;28.90;14.23;;;;;;;11.74;68.48;103154.72;8354796;27;20919;-65
2022/01/13 10:51:05;;;;;;;32.60;15.20;;;;;;;10.32;70.24;103149.56;8355800;28;20071;-65
2022/01/13 10:55:12;;;;;;;35.17;14.80;;;;;;;11.05;69.54;103144.91;8350614;28;20132;-65
2022/01/13 10:59:34;;;;;;;29.25;14.77;;;;;;;11.51;67.19;103136.09;8360824;28;20060;-65
2022/01/13 11:03:39;;;;;;;26.75;13.27;;;;;;;12.33;65.85;103142.34;8348010;28;20102;-65
2022/01/13 11:07:41;;;;;;;31.80;14.93;;;;;;;11.62;65.92;103139.13;8349923;28;20048;-65
2022/01/13 11:11:45;;;;;;;30.23;15.10;;;;;;;10.93;67.99;103136.53;8349207;28;20041;-65
2022/01/13 11:15:50;;;;;;;30.65;15.35;;;;;;;10.85;69.78;103127.91;8350027;28;20060;-65
2022/01/13 11:19:51;;;;;;;28.77;14.52;;;;;;;11.23;67.35;103124.97;8347527;28;20455;-65
2022/01/13 11:23:53;;;;;;;29.17;13.55;;;;;;;12.18;65.16;103110.69;8351557;28;20179;-65
2022/01/13 11:27:56;;;;;;;27.25;15.10;;;;;;;12.02;66.54;103099.84;8335305;28;20033;-65
2022/01/13 11:31:57;;;;;;;27.77;12.65;;;;;;;12.23;64.50;103097.75;8352212;28;20037;-65
2022/01/13 11:35:58;;;;;;;25.70;13.20;;;;;;;11.82;66.12;103092.84;8335414;28;20119;-65
2022/01/13 11:39:58;;;;;;;23.02;12.43;;;;;;;12.20;65.25;103081.63;8351431;28;20544;-65
2022/01/13 11:44:17;;;;;;;27.95;13.13;;;;;;;11.85;66.25;103091.78;8351188;28;20519;-65
2022/01/13 11:48:23;;;;;;;21.83;11.57;;;;;;;11.09;66.51;103083.31;8349353;28;20523;-65
2022/01/13 11:52:43;;;;;;;27.50;13.38;;;;;;;11.96;65.97;103069.47;8344549;28;20053;-65
2022/01/13 11:57:22;;;;;;;22.58;11.40;;;;;;;11.45;66.79;103071.41;8319344;28;20037;-65
2022/01/13 12:01:26;;;;;;;29.00;12.38;;;;;;;11.64;67.63;103061.34;8289169;28;20107;-65
2022/01/13 12:05:39;;;;;;;26.58;12.85;;;;;;;11.55;69.04;103050.97;8294984;28;20493;-65
2022/01/13 12:09:40;;;;;;;24.20;11.40;;;;;;;11.43;67.06;103050.75;8295023;28;20045;-65
2022/01/13 12:13:44;;;;;;;23.15;10.40;;;;;;;11.64;67.07;103045.06;8311737;28;20057;-65
2022/01/13 12:17:47;;;;;;;22.95;11.07;;;;;;;11.35;67.95;103037.63;8308178;28;20029;-65
2022/01/13 12:22:00;;;;;;;18.65;9.57;;;;;;;11.60;66.34;103027.22;8326285;28;20040;-65
2022/01/13 12:26:00;;;;;;;24.95;11.02;;;;;;;11.14;68.95;103027.09;8314140;28;20045;-65
2022/01/13 12:38:58;;;;;;;21.13;10.10;;;;;;;10.13;70.40;103018.94;8396510;27;20440;-65
2022/01/13 12:43:20;;;;;;;22.98;11.07;;;;;;;9.14;73.83;103012.94;8368665;28;20146;-64
2022/01/13 12:47:22;;;;;;;31.23;13.82;;;;;;;8.47;78.92;103014.19;8366903;28;20046;-65
2022/01/13 12:51:26;;;;;;;25.40;12.27;;;;;;;8.66;78.74;102998.97;8386275;28;20036;-65
2022/01/13 12:55:26;;;;;;;27.45;14.07;;;;;;;8.33;81.96;102985.16;8385441;28;20082;-65
2022/01/13 12:59:26;;;;;;;28.52;11.90;;;;;;;8.48;79.96;102989.00;8384057;28;20044;-65
2022/01/13 13:03:27;;;;;;;22.33;10.57;;;;;;;8.12;81.38;102979.75;8386427;28;20436;-65
2022/01/13 13:07:27;;;;;;;23.33;11.38;;;;;;;8.55;81.12;102985.09;8387885;28;20446;-65
2022/01/13 13:11:30;;;;;;;23.15;11.10;;;;;;;8.74;79.00;102981.50;8378433;28;20497;-64
2022/01/13 13:19:43;;;;;;;21.95;10.68;;;;;;;8.81;79.36;102987.50;8312072;27;20485;-65
2022/01/13 13:23:44;;;;;;;23.67;10.38;;;;;;;8.81;79.24;102982.13;8289545;28;20038;-65
2022/01/13 13:27:44;;;;;;;22.17;10.68;;;;;;;8.63;79.77;102980.25;8268578;28;20034;-65
2022/01/13 13:31:46;;;;;;;29.23;11.45;;;;;;;8.38;80.64;102976.88;8255374;28;20329;-65
2022/01/13 13:35:46;;;;;;;24.73;10.32;;;;;;;8.49;81.26;102969.19;8282412;28;20049;-65
2022/01/13 13:39:47;;;;;;;21.92;10.30;;;;;;;8.41;81.25;102976.72;8282842;28;20072;-65
2022/01/13 13:43:47;;;;;;;23.15;10.73;;;;;;;8.39;82.24;102973.22;8277720;28;20987;-65
2022/01/13 13:47:55;;;;;;;23.83;10.85;;;;;;;8.44;81.65;102972.06;8264671;28;20525;-65
2022/01/13 13:51:58;;;;;;;23.10;10.77;;;;;;;8.27;82.28;102969.25;8274654;28;20449;-65
2022/01/13 13:56:02;;;;;;;17.40;9.73;;;;;;;8.49;80.93;102963.78;8266453;28;20485;-64
2022/01/13 14:00:09;;;;;;;24.27;9.50;;;;;;;8.34;80.74;102954.56;8285381;28;20066;-65
2022/01/13 14:04:09;;;;;;;20.42;8.85;;;;;;;8.46;79.97;102950.44;8289660;28;20168;-65
2022/01/13 14:08:10;;;;;;;22.63;10.02;;;;;;;8.57;80.60;102950.84;8278005;28;20047;-65
2022/01/13 14:12:12;;;;;;;20.52;10.07;;;;;;;8.71;80.63;102956.50;8279083;28;20596;-65
2022/01/13 14:16:13;;;;;;;24.80;9.98;;;;;;;8.66;81.11;102951.31;8250299;28;20343;-65
2022/01/13 14:20:17;;;;;;;18.83;9.07;;;;;;;8.77;79.98;102957.09;8252552;28;20069;-65
2022/01/13 14:24:34;;;;;;;;;;;;;;;8.82;81.13;102948.78;8258694;28;20044;-65
2022/01/13 14:28:36;;;;;;;23.05;10.10;;;;;;;8.74;80.80;102949.16;8245003;28;19960;-65
2022/01/13 14:32:37;;;;;;;21.75;9.98;;;;;;;8.73;80.99;102938.44;8225766;28;20830;-65
2022/01/13 14:36:38;;;;;;;23.77;10.10;;;;;;;8.53;82.04;102949.22;8224529;28;20066;-65
2022/01/13 14:40:48;;;;;;;22.42;10.45;;;;;;;8.48;81.82;102935.09;8226372;28;20051;-65
2022/01/13 14:44:49;;;;;;;20.02;9.55;;;;;;;8.74;81.37;102940.16;8225325;28;20066;-65
2022/01/13 14:48:49;;;;;;;21.95;9.57;;;;;;;8.85;79.99;102933.34;8225630;28;20030;-65
2022/01/13 14:52:52;;;;;;;23.35;9.77;;;;;;;8.79;80.78;102933.63;8240395;28;20260;-65
2022/01/13 14:56:52;;;;;;;22.25;9.82;;;;;;;8.65;81.52;102921.69;8225318;28;20047;-65
2022/01/13 15:00:53;;;;;;;20.55;9.50;;;;;;;8.78;81.09;102933.72;8223533;28;20633;-65
2022/01/13 15:04:53;;;;;;;25.35;10.75;;;;;;;8.84;80.67;102938.81;8239111;28;20439;-65
2022/01/13 15:08:54;;;;;;;21.08;9.20;;;;;;;8.71;81.39;102943.00;8227108;28;20043;-65
2022/01/13 15:12:54;;;;;;;22.08;8.50;;;;;;;8.61;82.10;102936.28;8222844;28;20157;-65
2022/01/13 15:16:55;;;;;;;20.02;8.88;;;;;;;8.60;83.16;102934.53;8230409;28;20053;-65
2022/01/13 15:20:59;;;;;;;17.00;8.13;;;;;;;8.41;83.47;102926.38;8219557;28;21524;-65
2022/01/13 15:25:00;;;;;;;18.40;8.20;;;;;;;8.20;84.55;102924.59;8221895;28;20039;-65
2022/01/13 15:29:00;;;;;;;21.55;8.18;;;;;;;8.19;84.24;102924.66;8222219;28;20141;-65
2022/01/13 15:33:03;;;;;;;18.23;8.43;;;;;;;8.01;84.99;102929.91;8221726;28;20073;-65
2022/01/13 15:37:04;;;;;;;20.98;9.43;;;;;;;8.03;84.83;102933.41;8224932;28;20047;-65
2022/01/13 15:41:06;;;;;;;16.70;8.85;;;;;;;7.72;86.11;102924.88;8224335;28;20060;-65
2022/01/13 15:45:08;;;;;;;18.95;8.68;;;;;;;7.81;85.88;102921.78;8233397;28;20144;-65
2022/01/13 15:49:09;;;;;;;16.75;7.82;;;;;;;7.60;86.34;102928.06;8219453;28;20096;-65
2022/01/13 15:53:10;;;;;;;17.15;8.77;;;;;;;7.71;85.97;102923.13;8220511;28;21490;-65
2022/01/13 15:57:10;;;;;;;24.05;9.55;;;;;;;7.58;86.29;102921.88;8222667;28;20062;-65
2022/01/13 16:01:11;;;;;;;18.83;9.15;;;;;;;7.46;86.25;102917.00;8224136;28;20046;-65
2022/01/13 16:05:13;;;;;;;18.42;9.25;;;;;;;7.45;86.06;102915.25;8224130;28;20047;-65
2022/01/13 16:09:13;;;;;;;18.13;7.97;;;;;;;7.00;88.41;102909.00;8223641;28;20062;-65
2022/01/13 16:13:17;;;;;;;20.73;8.55;;;;;;;6.41;90.98;102901.44;8230032;28;20047;-64
2022/01/13 16:17:18;;;;;;;20.10;8.95;;;;;;;5.77;93.97;102913.53;8210972;28;20047;-65
2022/01/13 16:21:19;;;;;;;27.02;10.73;;;;;;;5.91;96.58;102916.63;8224348;28;20109;-64
2022/01/13 16:25:19;;;;;;;21.42;9.05;;;;;;;6.20;95.12;102908.47;8211619;28;20543;-64
2022/01/13 16:29:56;;;;;;;25.25;9.15;;;;;;;6.07;95.96;102919.69;8223291;28;20043;-64
2022/01/13 16:33:59;;;;;;;20.10;9.02;;;;;;;5.88;96.48;102916.72;8219514;28;20055;-64
2022/01/13 16:38:01;;;;;;;24.45;11.18;;;;;;;5.73;98.05;102923.47;8207476;28;20066;-64
2022/01/13 16:42:03;;;;;;;26.52;11.25;;;;;;;5.59;97.76;102919.50;8210610;28;20474;-64
2022/01/13 16:46:04;;;;;;;24.40;10.40;;;;;;;5.74;98.74;102921.69;8227722;28;20168;-64
2022/01/13 16:50:07;;;;;;;17.85;9.25;;;;;;;5.56;97.17;102916.91;8227632;28;20038;-64
2022/01/13 16:54:07;;;;;;;24.15;10.30;;;;;;;5.58;98.98;102904.34;8212850;28;20541;-64
2022/01/13 16:58:07;;;;;;;20.10;9.30;;;;;;;5.50;98.71;102911.75;8210856;28;20517;-64
2022/01/13 17:02:08;;;;;;;19.42;9.60;;;;;;;5.40;99.63;102921.03;8200292;28;20511;-64
2022/01/13 17:06:09;;;;;;;22.23;9.18;;;;;;;5.10;99.04;102919.31;8207754;28;20288;-64
2022/01/13 17:10:09;;;;;;;21.23;10.68;;;;;;;4.99;100.00;102916.06;8222996;28;20061;-64
2022/01/13 17:14:10;;;;;;;24.77;10.65;;;;;;;4.86;100.00;102909.31;8218113;28;20045;-64
2022/01/13 17:18:10;;;;;;;26.10;12.15;;;;;;;5.03;100.00;102902.50;8216964;28;20137;-64
2022/01/13 17:22:11;;;;;;;24.02;11.52;;;;;;;5.03;100.00;102901.66;8221939;28;20141;-64
2022/01/13 17:26:11;;;;;;;25.23;11.98;;;;;;;5.21;100.00;102906.41;8228728;28;20126;-64
2022/01/13 17:30:16;;;;;;;19.45;9.60;;;;;;;5.22;99.74;102916.25;8231185;28;20107;-64
2022/01/13 17:34:17;;;;;;;18.30;9.50;;;;;;;4.47;100.00;102910.47;8239927;28;20321;-64
2022/01/13 17:38:18;;;;;;;25.30;11.35;;;;;;;4.70;100.00;102918.75;8218652;28;20053;-64
2022/01/13 17:42:19;;;;;;;24.92;11.25;;;;;;;4.53;100.00;102916.56;8220209;28;20035;-64
2022/01/13 17:46:19;;;;;;;29.63;10.50;;;;;;;4.60;100.00;102907.41;8225011;28;20546;-63
2022/01/13 17:50:20;;;;;;;29.45;11.20;;;;;;;4.71;100.00;102917.81;8221262;28;20074;-64
2022/01/13 17:54:20;;;;;;;25.95;10.95;;;;;;;4.55;100.00;102908.47;8225009;28;20047;-64
2022/01/13 17:58:21;;;;;;;28.75;12.27;;;;;;;4.55;100.00;102903.13;8230697;28;20061;-64
2022/01/13 18:02:21;;;;;;;23.73;10.77;;;;;;;4.32;100.00;102897.50;8230224;28;20446;-64
2022/01/13 18:06:21;;;;;;;28.77;14.18;;;;;;;4.28;100.00;102894.06;8213129;28;20054;-64
2022/01/13 18:10:22;;;;;;;29.80;15.30;;;;;;;4.37;100.00;102892.91;8235084;28;20073;-64
2022/01/13 18:14:24;;;;;;;24.17;12.50;;;;;;;4.30;100.00;102896.69;8230699;28;20038;-64
2022/01/13 18:18:27;;;;;;;31.17;13.77;;;;;;;4.17;100.00;102898.81;8236357;28;20609;-64
2022/01/13 18:22:27;;;;;;;72.82;25.98;;;;;;;4.22;100.00;102898.69;8236840;28;20038;-64
2022/01/13 18:26:27;;;;;;;33.30;14.60;;;;;;;3.88;100.00;102904.94;8227371;28;20039;-64
2022/01/13 18:30:28;;;;;;;30.25;14.95;;;;;;;3.90;100.00;102903.13;8230324;28;20039;-64
2022/01/13 18:34:29;;;;;;;31.48;15.50;;;;;;;3.72;100.00;102898.25;8227226;28;20061;-64
2022/01/13 18:38:29;;;;;;;34.70;14.55;;;;;;;3.77;100.00;102896.34;8237619;28;20259;-64
2022/01/13 18:42:36;;;;;;;34.47;13.85;;;;;;;3.75;100.00;102897.28;8234174;28;20061;-64
2022/01/13 18:46:37;;;;;;;32.72;14.10;;;;;;;3.59;100.00;102879.88;8229506;28;20031;-64
2022/01/13 18:50:42;;;;;;;28.35;13.88;;;;;;;3.40;100.00;102884.81;8228385;28;20043;-64
2022/01/13 18:54:43;;;;;;;33.33;15.25;;;;;;;3.56;100.00;102879.94;8231805;28;20656;-64
2022/01/13 18:58:43;;;;;;;30.80;14.95;;;;;;;3.24;100.00;102878.09;8246227;28;20487;-64